createdAt,value
2023-04-07T00:00:13.983Z,41.80
2023-04-07T00:02:44.405Z,41.50
2023-04-07T00:05:12.789Z,42.20
2023-04-07T00:07:48.914Z,40.20
2023-04-07T00:10:24.785Z,42.70
2023-04-07T00:12:53.030Z,43.70
2023-04-07T00:15:22.532Z,39.20
2023-04-07T00:17:50.633Z,40.30
2023-04-07T00:20:18.699Z,42.10
2023-04-07T00:22:46.734Z,42.70
2023-04-07T00:25:14.760Z,44.00
2023-04-07T00:27:42.792Z,42.60
2023-04-07T00:30:11.194Z,44.20
2023-04-07T00:32:40.797Z,42.10
2023-04-07T00:35:09.813Z,44.20
2023-04-07T00:37:37.934Z,45.90
2023-04-07T00:40:07.115Z,45.80
2023-04-07T00:42:35.474Z,45.00
2023-04-07T00:45:03.760Z,43.10
2023-04-07T00:47:32.116Z,42.20
2023-04-07T00:50:01.555Z,42.80
2023-04-07T00:52:30.212Z,43.70
2023-04-07T00:54:58.745Z,42.70
2023-04-07T00:57:27.440Z,43.10
2023-04-07T00:59:57.367Z,42.30
2023-04-07T01:02:34.280Z,43.70
2023-04-07T01:05:12.436Z,43.30
2023-04-07T01:07:51.240Z,44.00
2023-04-07T01:10:28.227Z,42.40
2023-04-07T01:13:03.315Z,42.30
2023-04-07T01:15:32.879Z,43.30
2023-04-07T01:18:08.561Z,44.30
2023-04-07T01:20:39.701Z,44.10
2023-04-07T01:23:09.121Z,44.00
2023-04-07T01:25:55.247Z,44.40
2023-04-07T01:28:56.760Z,45.20
2023-04-07T01:31:27.965Z,43.80
2023-04-07T01:33:57.800Z,44.20
2023-04-07T01:36:28.404Z,47.70
2023-04-07T01:38:57.255Z,50.90
2023-04-07T01:41:26.418Z,53.00
2023-04-07T01:43:55.950Z,54.60
2023-04-07T01:46:25.980Z,54.80
2023-04-07T01:48:54.557Z,55.40
2023-04-07T01:51:25.001Z,56.70
2023-04-07T01:53:54.268Z,54.80
2023-04-07T01:56:22.484Z,53.70
2023-04-07T01:58:50.555Z,53.10
2023-04-07T02:01:18.879Z,52.90
2023-04-07T02:03:54.110Z,50.80
2023-04-07T02:06:27.626Z,49.30
2023-04-07T02:09:00.241Z,50.60
2023-04-07T02:11:30.389Z,50.40
2023-04-07T02:13:59.912Z,51.20
2023-04-07T02:16:29.731Z,50.20
2023-04-07T02:18:59.829Z,49.70
2023-04-07T02:21:30.321Z,48.40
2023-04-07T02:24:01.588Z,49.50
2023-04-07T02:26:30.559Z,52.10
2023-04-07T02:28:58.625Z,54.50
2023-04-07T02:31:26.880Z,55.20
2023-04-07T02:33:55.159Z,55.60
2023-04-07T02:36:24.690Z,56.50
2023-04-07T02:38:52.771Z,56.70
2023-04-07T02:41:21.407Z,56.90
2023-04-07T02:43:49.594Z,57.90
2023-04-07T02:46:17.847Z,59.70
2023-04-07T02:48:46.155Z,60.80
2023-04-07T02:51:14.273Z,61.40
2023-04-07T02:53:43.639Z,60.30
2023-04-07T02:56:11.648Z,60.30
2023-04-07T02:58:39.761Z,60.00
2023-04-07T03:01:07.928Z,59.40
2023-04-07T03:03:36.209Z,56.90
2023-04-07T03:06:04.458Z,55.60
2023-04-07T03:08:32.499Z,54.60
2023-04-07T03:11:01.918Z,53.30
2023-04-07T03:13:30.845Z,51.70
2023-04-07T03:15:59.051Z,50.50
2023-04-07T03:18:27.072Z,50.50
2023-04-07T03:20:56.129Z,50.50
2023-04-07T03:23:24.705Z,50.60
2023-04-07T03:25:52.741Z,50.60
2023-04-07T03:28:22.346Z,51.20
2023-04-07T03:30:50.525Z,50.10
2023-04-07T03:33:18.645Z,49.00
2023-04-07T03:35:46.792Z,48.30
2023-04-07T03:38:14.919Z,47.60
2023-04-07T03:40:42.931Z,47.90
2023-04-07T03:43:14.121Z,48.20
2023-04-07T03:45:43.543Z,48.50
2023-04-07T03:48:12.208Z,47.90
2023-04-07T03:50:40.917Z,47.80
2023-04-07T03:53:09.384Z,48.20
2023-04-07T03:55:37.724Z,48.00
2023-04-07T03:58:05.898Z,48.60
2023-04-07T04:00:34.006Z,47.20
2023-04-07T04:03:03.778Z,46.20
2023-04-07T04:05:32.067Z,46.60
2023-04-07T04:08:00.165Z,47.20
2023-04-07T04:10:28.362Z,47.20
2023-04-07T04:12:56.724Z,47.20
2023-04-07T04:15:24.890Z,47.90
2023-04-07T04:17:53.015Z,46.90
2023-04-07T04:20:22.744Z,47.20
2023-04-07T04:22:50.782Z,47.10
2023-04-07T04:25:18.976Z,47.00
2023-04-07T04:27:47.047Z,46.20
2023-04-07T04:30:15.566Z,45.60
2023-04-07T04:32:46.649Z,46.10
2023-04-07T04:35:14.834Z,46.00
2023-04-07T04:37:44.247Z,45.60
2023-04-07T04:40:13.335Z,47.00
2023-04-07T04:42:41.583Z,47.10
2023-04-07T04:45:10.700Z,47.10
2023-04-07T04:47:39.696Z,46.80
2023-04-07T04:50:08.824Z,46.50
2023-04-07T04:52:38.170Z,45.80
2023-04-07T04:55:09.035Z,44.70
2023-04-07T04:57:37.090Z,44.70
2023-04-07T05:00:05.991Z,46.90
2023-04-07T05:02:34.214Z,47.80
2023-04-07T05:05:02.525Z,49.10
2023-04-07T05:07:31.436Z,50.00
2023-04-07T05:09:59.670Z,50.30
2023-04-07T05:12:29.077Z,50.70
2023-04-07T05:14:57.163Z,51.00
2023-04-07T05:17:25.454Z,51.40
2023-04-07T05:19:53.534Z,51.30
2023-04-07T05:22:21.549Z,51.90
2023-04-07T05:24:49.635Z,51.30
2023-04-07T05:27:17.738Z,49.60
2023-04-07T05:29:47.140Z,50.40
2023-04-07T05:32:15.595Z,50.50
2023-04-07T05:34:43.633Z,50.30
2023-04-07T05:37:11.775Z,50.30
2023-04-07T05:39:39.855Z,50.70
2023-04-07T05:42:07.935Z,51.90
2023-04-07T05:44:36.011Z,52.00
2023-04-07T05:47:08.820Z,49.30
2023-04-07T05:49:36.948Z,47.10
2023-04-07T05:52:05.983Z,48.30
2023-04-07T05:54:34.025Z,50.00
2023-04-07T05:57:02.350Z,51.70
2023-04-07T05:59:30.416Z,51.90
2023-04-07T06:01:58.506Z,51.90
2023-04-07T06:04:27.972Z,48.90
2023-04-07T06:06:56.039Z,50.20
2023-04-07T06:09:24.212Z,51.10
2023-04-07T06:11:52.244Z,50.40
2023-04-07T06:14:20.760Z,50.30
2023-04-07T06:16:48.877Z,50.20
2023-04-07T06:19:16.973Z,49.30
2023-04-07T06:21:46.387Z,47.90
2023-04-07T06:24:14.414Z,47.40
2023-04-07T06:26:42.513Z,47.50
2023-04-07T06:29:10.578Z,44.50
2023-04-07T06:31:38.806Z,43.60
2023-04-07T06:34:06.972Z,43.90
2023-04-07T06:36:35.499Z,43.20
2023-04-07T06:39:05.214Z,42.90
2023-04-07T06:41:33.258Z,42.70
2023-04-07T06:44:02.429Z,41.70
2023-04-07T06:46:30.550Z,41.00
2023-04-07T06:48:58.638Z,41.30
2023-04-07T06:51:27.726Z,39.50
2023-04-07T06:53:55.767Z,39.00
2023-04-07T06:56:26.166Z,38.20
2023-04-07T06:58:54.294Z,37.90
2023-04-07T07:01:22.407Z,36.80
2023-04-07T07:03:50.675Z,32.60
2023-04-07T07:06:18.985Z,32.00
2023-04-07T07:08:47.003Z,31.30
2023-04-07T07:11:15.006Z,31.20
2023-04-07T07:13:45.171Z,28.50
2023-04-07T07:16:13.807Z,28.70
2023-04-07T07:18:41.925Z,27.90
2023-04-07T07:21:10.099Z,28.30
2023-04-07T07:23:38.267Z,28.60
2023-04-07T07:26:06.440Z,28.60
2023-04-07T07:28:34.482Z,28.50
2023-04-07T07:31:10.500Z,28.00
2023-04-07T07:33:40.482Z,28.60
2023-04-07T07:36:09.223Z,28.60
2023-04-07T07:38:37.858Z,26.60
2023-04-07T07:41:07.155Z,26.60
2023-04-07T07:43:35.433Z,28.20
2023-04-07T07:46:04.919Z,27.20
2023-04-07T07:48:33.037Z,26.90
2023-04-07T07:51:01.323Z,25.20
2023-04-07T07:53:29.432Z,24.50
2023-04-07T07:55:57.450Z,24.60
2023-04-07T07:58:25.593Z,24.30
2023-04-07T08:00:53.657Z,24.30
2023-04-07T08:03:23.199Z,25.90
2023-04-07T08:05:51.614Z,27.10
2023-04-07T08:08:19.707Z,25.90
2023-04-07T08:10:48.896Z,24.50
2023-04-07T08:13:17.030Z,24.40
2023-04-07T08:15:45.204Z,25.40
2023-04-07T08:18:13.345Z,25.70
2023-04-07T08:20:42.756Z,25.00
2023-04-07T08:23:10.844Z,24.90
2023-04-07T08:25:40.014Z,23.00
2023-04-07T08:28:08.224Z,23.40
2023-04-07T08:30:36.446Z,24.70
2023-04-07T08:33:06.737Z,24.60
2023-04-07T08:35:34.891Z,25.30
2023-04-07T08:38:05.708Z,24.90
2023-04-07T08:40:34.749Z,25.30
2023-04-07T08:43:04.627Z,22.80
2023-04-07T08:45:34.142Z,22.00
2023-04-07T08:48:08.919Z,22.00
2023-04-07T08:50:38.057Z,20.80
2023-04-07T08:53:10.177Z,20.00
2023-04-07T08:55:38.292Z,21.00
2023-04-07T08:58:06.899Z,20.70
2023-04-07T09:00:34.999Z,20.60
2023-04-07T09:03:04.666Z,20.50
2023-04-07T09:05:33.693Z,19.80
2023-04-07T09:08:03.077Z,19.60
2023-04-07T09:10:32.498Z,18.40
2023-04-07T09:13:00.762Z,18.40
2023-04-07T09:15:32.256Z,18.10
2023-04-07T09:18:00.660Z,17.80
2023-04-07T09:20:28.734Z,17.50
2023-04-07T09:22:56.784Z,16.90
2023-04-07T09:25:27.259Z,16.90
2023-04-07T09:27:58.544Z,18.40
2023-04-07T09:30:27.360Z,18.00
2023-04-07T09:32:55.842Z,17.10
2023-04-07T09:35:24.833Z,17.90
2023-04-07T09:38:06.665Z,17.30
2023-04-07T09:40:34.968Z,17.90
2023-04-07T09:43:05.424Z,16.30
2023-04-07T09:45:36.613Z,13.60
2023-04-07T09:48:09.008Z,14.20
2023-04-07T09:50:38.187Z,15.70
2023-04-07T09:53:06.282Z,14.90
2023-04-07T09:55:35.021Z,14.80
2023-04-07T09:58:07.509Z,14.60
2023-04-07T10:00:37.013Z,14.10
2023-04-07T10:03:05.892Z,14.50
2023-04-07T10:05:35.436Z,12.60
2023-04-07T10:08:03.854Z,14.10
2023-04-07T10:10:32.876Z,13.30
2023-04-07T10:13:01.303Z,13.50
2023-04-07T10:15:32.106Z,13.40
2023-04-07T10:18:01.500Z,13.10
2023-04-07T10:20:31.010Z,13.60
2023-04-07T10:23:08.517Z,11.50
2023-04-07T10:25:37.453Z,12.50
2023-04-07T10:28:08.764Z,11.90
2023-04-07T10:30:39.111Z,11.80
2023-04-07T10:33:07.381Z,11.20
2023-04-07T10:36:04.715Z,10.70
2023-04-07T10:38:32.916Z,9.90
2023-04-07T10:41:01.228Z,10.70
2023-04-07T10:43:40.055Z,11.80
2023-04-07T10:46:09.555Z,10.50
2023-04-07T10:48:37.799Z,9.80
2023-04-07T10:51:16.767Z,10.60
2023-04-07T10:54:23.793Z,9.80
2023-04-07T10:57:12.962Z,9.90
2023-04-07T10:59:46.892Z,9.00
2023-04-07T11:02:40.679Z,9.20
2023-04-07T11:05:09.181Z,8.90
2023-04-07T11:07:49.807Z,10.20
2023-04-07T11:10:19.315Z,11.50
2023-04-07T11:13:04.090Z,12.90
2023-04-07T11:15:32.205Z,15.00
2023-04-07T11:18:17.349Z,16.50
2023-04-07T11:20:50.687Z,17.30
2023-04-07T11:23:20.050Z,18.40
2023-04-07T11:25:49.891Z,20.20
2023-04-07T11:28:18.337Z,21.60
2023-04-07T11:30:49.651Z,26.00
2023-04-07T11:33:21.383Z,30.30
2023-04-07T11:35:55.637Z,31.90
2023-04-07T11:38:25.146Z,29.20
2023-04-07T11:40:53.490Z,29.80
2023-04-07T11:43:22.903Z,34.40
2023-04-07T11:46:06.996Z,33.90
2023-04-07T11:48:37.653Z,35.80
2023-04-07T11:51:06.795Z,33.90
2023-04-07T11:53:37.842Z,39.50
2023-04-07T11:56:09.609Z,43.50
2023-04-07T11:58:38.780Z,44.20
2023-04-07T12:01:08.999Z,46.50
2023-04-07T12:03:39.130Z,43.90
2023-04-07T12:06:08.363Z,47.50
2023-04-07T12:08:41.566Z,47.60
2023-04-07T12:11:10.508Z,42.70
2023-04-07T12:13:39.105Z,45.90
2023-04-07T12:16:07.541Z,44.00
2023-04-07T12:18:36.537Z,42.40
2023-04-07T12:21:06.446Z,38.50
2023-04-07T12:23:34.552Z,35.20
2023-04-07T12:26:02.816Z,40.90
2023-04-07T12:28:31.107Z,39.10
2023-04-07T12:30:59.161Z,37.40
2023-04-07T12:33:27.282Z,36.30
2023-04-07T12:35:55.546Z,38.70
2023-04-07T12:38:25.600Z,41.60
2023-04-07T12:40:54.022Z,36.80
2023-04-07T12:43:22.052Z,38.80
2023-04-07T12:45:50.098Z,40.00
2023-04-07T12:48:18.756Z,38.80
2023-04-07T12:50:46.877Z,40.70
2023-04-07T12:53:14.937Z,35.30
2023-04-07T12:55:44.309Z,35.50
2023-04-07T12:58:13.556Z,35.90
2023-04-07T13:00:42.572Z,33.40
2023-04-07T13:03:11.071Z,36.20
2023-04-07T13:05:39.381Z,37.10
2023-04-07T13:08:07.965Z,36.80
2023-04-07T13:10:36.046Z,37.90
2023-04-07T13:13:05.530Z,39.20
2023-04-07T13:15:33.631Z,41.70
2023-04-07T13:18:01.933Z,40.40
2023-04-07T13:20:30.568Z,37.50
2023-04-07T13:23:07.733Z,40.60
2023-04-07T13:25:37.712Z,39.20
2023-04-07T13:28:07.334Z,39.40
2023-04-07T13:30:35.454Z,35.70
2023-04-07T13:33:03.660Z,35.00
2023-04-07T13:35:35.756Z,37.50
2023-04-07T13:38:04.363Z,33.30
2023-04-07T13:40:32.603Z,31.10
2023-04-07T13:43:00.961Z,31.10
2023-04-07T13:45:30.456Z,31.70
2023-04-07T13:47:58.682Z,29.80
2023-04-07T13:50:27.129Z,29.50
2023-04-07T13:52:55.276Z,28.40
2023-04-07T13:55:23.293Z,28.70
2023-04-07T13:57:51.470Z,29.70
2023-04-07T14:00:20.683Z,33.20
2023-04-07T14:02:50.326Z,26.90
2023-04-07T14:05:18.550Z,26.90
2023-04-07T14:07:46.592Z,26.70
2023-04-07T14:10:14.697Z,25.80
2023-04-07T14:12:42.702Z,26.20
2023-04-07T14:15:12.093Z,26.00
2023-04-07T14:17:40.191Z,25.90
2023-04-07T14:20:10.827Z,25.30
2023-04-07T14:22:38.915Z,29.60
2023-04-07T14:25:08.060Z,28.70
2023-04-07T14:27:36.243Z,26.10
2023-04-07T14:30:04.617Z,25.00
2023-04-07T14:32:33.405Z,27.50
2023-04-07T14:35:01.807Z,25.20
2023-04-07T14:37:36.631Z,23.90
2023-04-07T14:40:05.122Z,24.80
2023-04-07T14:42:33.550Z,23.80
2023-04-07T14:45:04.510Z,24.40
2023-04-07T14:47:32.611Z,22.50
2023-04-07T14:50:00.708Z,20.60
2023-04-07T14:52:30.153Z,22.20
2023-04-07T14:55:00.258Z,24.60
2023-04-07T14:57:28.716Z,23.80
2023-04-07T14:59:56.801Z,26.50
2023-04-07T15:02:25.079Z,27.50
2023-04-07T15:04:53.275Z,26.90
2023-04-07T15:07:21.447Z,27.60
2023-04-07T15:09:50.889Z,26.70
2023-04-07T15:12:19.335Z,27.80
2023-04-07T15:14:47.439Z,28.10
2023-04-07T15:17:15.486Z,26.50
2023-04-07T15:19:44.212Z,24.70
2023-04-07T15:22:12.339Z,27.00
2023-04-07T15:24:40.535Z,27.50
2023-04-07T15:27:10.758Z,27.20
2023-04-07T15:29:38.919Z,26.70
2023-04-07T15:32:07.280Z,26.00
2023-04-07T15:34:35.377Z,25.40
2023-04-07T15:37:04.149Z,26.90
2023-04-07T15:39:32.301Z,25.50
2023-04-07T15:42:00.727Z,25.80
2023-04-07T15:44:33.458Z,27.50
2023-04-07T15:47:01.708Z,27.40
2023-04-07T15:49:29.919Z,27.30
2023-04-07T15:51:57.909Z,26.80
2023-04-07T15:54:26.801Z,25.30
2023-04-07T15:56:54.849Z,26.20
2023-04-07T15:59:22.996Z,27.70
2023-04-07T16:01:52.935Z,28.90
2023-04-07T16:04:21.192Z,24.80
2023-04-07T16:06:49.314Z,27.10
2023-04-07T16:09:17.462Z,29.60
2023-04-07T16:11:45.647Z,27.40
2023-04-07T16:14:13.737Z,27.80
2023-04-07T16:16:44.469Z,28.70
2023-04-07T16:19:14.605Z,27.30
2023-04-07T16:21:42.734Z,26.70
2023-04-07T16:24:10.772Z,27.00
2023-04-07T16:26:38.810Z,29.20
2023-04-07T16:29:06.847Z,26.60
2023-04-07T16:31:34.937Z,27.40
2023-04-07T16:34:03.037Z,25.70
2023-04-07T16:36:32.463Z,25.90
2023-04-07T16:39:00.576Z,27.60
2023-04-07T16:41:28.687Z,28.60
2023-04-07T16:43:56.967Z,27.40
2023-04-07T16:46:28.080Z,27.20
2023-04-07T16:48:56.285Z,28.80
2023-04-07T16:51:24.806Z,29.70
2023-04-07T16:53:54.270Z,29.90
2023-04-07T16:56:24.105Z,29.70
2023-04-07T16:58:52.657Z,31.80
2023-04-07T17:01:20.795Z,31.20
2023-04-07T17:03:49.434Z,32.40
2023-04-07T17:06:17.678Z,32.80
2023-04-07T17:08:45.740Z,34.20
2023-04-07T17:11:15.425Z,33.50
2023-04-07T17:13:43.635Z,33.30
2023-04-07T17:16:14.897Z,34.10
2023-04-07T17:18:43.100Z,36.50
2023-04-07T17:21:11.141Z,37.10
2023-04-07T17:23:39.434Z,38.60
2023-04-07T17:26:07.485Z,39.10
2023-04-07T17:28:36.945Z,39.10
2023-04-07T17:31:05.096Z,40.10
2023-04-07T17:33:33.477Z,37.70
2023-04-07T17:36:03.586Z,36.60
2023-04-07T17:38:32.182Z,37.50
2023-04-07T17:41:01.762Z,35.80
2023-04-07T17:43:29.956Z,33.60
2023-04-07T17:45:59.441Z,35.40
2023-04-07T17:48:27.689Z,37.20
2023-04-07T17:50:56.296Z,37.60
2023-04-07T17:53:24.508Z,37.80
2023-04-07T17:55:52.629Z,38.40
2023-04-07T17:58:21.192Z,39.50
2023-04-07T18:00:50.529Z,40.70
2023-04-07T18:03:20.166Z,40.90
2023-04-07T18:05:49.169Z,40.50
2023-04-07T18:08:17.312Z,39.00
2023-04-07T18:10:45.478Z,43.20
2023-04-07T18:13:13.552Z,43.40
2023-04-07T18:15:41.649Z,54.10
2023-04-07T18:19:05.931Z,61.30
2023-04-07T18:21:38.341Z,64.70
2023-04-07T18:27:06.925Z,68.80
2023-04-07T18:29:49.965Z,71.70
2023-04-07T18:32:58.196Z,74.20
2023-04-07T18:55:23.400Z,68.20
2023-04-07T18:57:51.454Z,64.90
2023-04-07T19:00:19.567Z,64.60
2023-04-07T19:02:48.190Z,66.10
2023-04-07T19:05:16.549Z,67.20
2023-04-07T19:07:44.606Z,68.50
2023-04-07T19:10:12.700Z,68.30
2023-04-07T19:17:23.765Z,69.00
2023-04-07T19:19:52.077Z,67.70
2023-04-07T19:22:20.370Z,66.80
2023-04-07T19:24:48.452Z,66.30
2023-04-07T19:27:17.176Z,67.10
2023-04-07T19:29:45.351Z,68.30
2023-04-07T19:36:17.442Z,69.10
2023-04-07T19:38:45.587Z,70.00
2023-04-07T19:41:13.677Z,70.70
2023-04-07T19:43:42.566Z,70.40
2023-04-07T19:46:10.691Z,71.30
2023-04-07T19:48:40.066Z,72.30
2023-04-07T19:51:08.117Z,71.20
2023-04-07T19:53:37.621Z,71.20
2023-04-07T19:56:06.310Z,70.70
2023-04-07T19:58:35.339Z,70.70
2023-04-07T20:01:04.521Z,71.40
2023-04-07T20:03:33.295Z,70.10
2023-04-07T20:06:01.924Z,68.70
2023-04-07T20:08:30.084Z,69.30
2023-04-07T20:10:59.597Z,71.10
2023-04-07T20:13:28.092Z,71.30
2023-04-07T20:15:56.413Z,70.90
2023-04-07T20:18:24.552Z,71.90
2023-04-07T20:20:59.941Z,70.50
2023-04-07T20:23:28.252Z,68.60
2023-04-07T20:25:56.552Z,69.00
2023-04-07T20:28:26.075Z,70.50
2023-04-07T20:30:54.340Z,70.80
2023-04-07T20:33:22.561Z,69.90
2023-04-07T20:35:50.908Z,67.10
2023-04-07T20:38:20.197Z,67.90
2023-04-07T20:40:48.305Z,69.90
2023-04-07T20:43:18.256Z,71.30
2023-04-07T20:45:47.997Z,71.50
2023-04-07T20:48:18.342Z,70.40
2023-04-07T20:50:46.455Z,69.80
2023-04-07T20:53:14.558Z,70.20
2023-04-07T20:55:43.224Z,71.20
2023-04-07T20:58:11.586Z,72.80
2023-04-07T21:00:39.749Z,74.10
2023-04-07T21:03:09.438Z,74.70
2023-04-07T21:05:37.836Z,74.90
2023-04-07T21:08:06.178Z,75.50
2023-04-07T21:10:34.275Z,75.00
2023-04-07T21:13:02.449Z,75.20
2023-04-07T21:15:30.732Z,75.10
2023-04-07T21:17:58.995Z,75.80
2023-04-07T21:20:28.463Z,75.20
2023-04-07T21:22:56.554Z,75.40
2023-04-07T21:25:24.760Z,74.30
2023-04-07T21:27:52.925Z,73.30
2023-04-07T21:30:22.464Z,73.80
2023-04-07T21:32:50.615Z,72.90
2023-04-07T21:35:19.789Z,71.90
2023-04-07T21:37:49.303Z,70.60
2023-04-07T21:40:17.441Z,69.80
2023-04-07T21:42:45.524Z,69.10
2023-04-07T21:45:13.850Z,70.70
2023-04-07T21:47:41.933Z,72.40
2023-04-07T21:50:10.672Z,72.90
2023-04-07T21:52:38.763Z,74.10
2023-04-07T21:55:10.050Z,75.70
2023-04-07T21:57:38.240Z,73.40
2023-04-07T22:00:08.314Z,72.80
2023-04-07T22:02:36.690Z,71.70
2023-04-07T22:05:05.203Z,71.30
2023-04-07T22:07:33.628Z,71.60
2023-04-07T22:10:01.699Z,71.10
2023-04-07T22:12:31.130Z,71.80
2023-04-07T22:14:59.135Z,72.40
2023-04-07T22:17:27.358Z,75.10
2023-04-07T22:19:55.739Z,73.80
2023-04-07T22:22:23.884Z,74.10
2023-04-07T22:24:51.969Z,75.40
2023-04-07T22:27:20.046Z,75.80
2023-04-07T22:29:49.481Z,74.50
2023-04-07T22:32:17.519Z,74.00
2023-04-07T22:34:45.693Z,75.40
2023-04-07T22:37:13.896Z,76.40
2023-04-07T22:39:41.903Z,77.10
2023-04-07T22:42:10.009Z,76.90
2023-04-07T22:44:38.041Z,76.40
2023-04-07T22:47:07.629Z,77.30
2023-04-07T22:49:35.881Z,77.60
2023-04-07T22:52:03.956Z,76.60
2023-04-07T22:54:32.127Z,75.00
2023-04-07T22:57:01.734Z,74.40
2023-04-07T22:59:29.850Z,73.80
2023-04-07T23:01:58.070Z,73.00
2023-04-07T23:04:27.990Z,71.30
2023-04-07T23:06:56.197Z,70.70
2023-04-07T23:09:24.296Z,70.90
2023-04-07T23:11:52.385Z,71.50
2023-04-07T23:14:20.489Z,70.90
2023-04-07T23:16:48.598Z,70.40
2023-04-07T23:19:17.211Z,70.00
2023-04-07T23:21:46.707Z,69.60
2023-04-07T23:24:14.752Z,70.20
2023-04-07T23:26:42.832Z,70.70
2023-04-07T23:29:10.977Z,69.40
2023-04-07T23:31:39.094Z,69.50
2023-04-07T23:34:07.201Z,70.80
2023-04-07T23:36:35.246Z,70.40
2023-04-07T23:39:04.806Z,68.90
2023-04-07T23:41:33.033Z,67.90
2023-04-07T23:44:01.469Z,68.30
2023-04-07T23:46:29.576Z,68.10
2023-04-07T23:48:57.715Z,67.90
2023-04-07T23:51:26.525Z,68.80
2023-04-07T23:53:54.670Z,69.70
2023-04-07T23:56:24.266Z,69.30
2023-04-07T23:58:52.411Z,70.30
